Time;durP1;ratioP1;P1;durP2;ratioP2;P2;SDS_P1;SDS_P2;PMS_P1;PMS_P2;Temp;Humidity;BMP_temperature;BMP_pressure;BME280_temperature;BME280_humidity;BME280_pressure;Samples;Min_cycle;Max_cycle;Signal;HPM_P1;HPM_P2
2022/05/03 00:02:33;;;;;;;3.53;0.70;;;21.10;53.30;;;;;;5075666;28;20102;-56
2022/05/03 00:05:02;;;;;;;0.85;0.50;;;21.10;53.20;;;;;;5074908;28;20044;-56
2022/05/03 00:08:05;;;;;;;3.15;0.65;;;21.10;53.20;;;;;;5076141;28;20046;-57
2022/05/03 00:10:36;;;;;;;1.92;0.60;;;21.00;53.10;;;;;;5013342;28;20460;-56
2022/05/03 00:13:09;;;;;;;2.05;0.60;;;21.00;53.10;;;;;;5059793;28;20476;-57
2022/05/03 00:15:35;;;;;;;0.90;0.52;;;21.00;53.00;;;;;;5074655;28;20468;-56
2022/05/03 00:18:02;;;;;;;2.85;0.60;;;21.00;53.00;;;;;;5074842;28;20051;-57
2022/05/03 00:20:28;;;;;;;2.25;0.90;;;21.00;52.90;;;;;;5075672;28;20080;-56
2022/05/03 00:22:54;;;;;;;1.95;0.80;;;21.00;52.90;;;;;;5074338;28;20075;-56
2022/05/03 00:25:20;;;;;;;1.75;0.63;;;20.90;52.80;;;;;;5073726;28;20052;-56
2022/05/03 00:27:45;;;;;;;1.83;0.70;;;21.00;52.80;;;;;;5073639;28;20055;-56
2022/05/03 00:30:11;;;;;;;1.48;0.63;;;20.90;52.70;;;;;;5074215;28;20149;-57
2022/05/03 00:32:39;;;;;;;1.13;0.60;;;20.90;52.70;;;;;;5074756;28;20051;-56
2022/05/03 00:35:05;;;;;;;3.17;0.68;;;20.90;52.60;;;;;;5074212;28;20113;-56
2022/05/03 00:37:30;;;;;;;1.45;0.80;;;20.90;52.60;;;;;;5073695;28;20048;-57
2022/05/03 00:39:56;;;;;;;3.42;0.90;;;20.90;52.60;;;;;;5073753;28;20044;-57
2022/05/03 00:42:24;;;;;;;2.05;0.65;;;20.90;52.50;;;;;;5074990;28;20093;-57
2022/05/03 00:45:02;;;;;;;2.65;0.80;;;20.90;52.50;;;;;;5073694;28;20425;-57
2022/05/03 00:47:32;;;;;;;3.00;1.00;;;20.90;52.40;;;;;;5074393;28;20048;-56
2022/05/03 00:50:20;;;;;;;2.72;0.68;;;20.90;52.40;;;;;;5074939;28;20568;-57
2022/05/03 00:52:48;;;;;;;1.77;0.77;;;20.80;52.20;;;;;;5074051;28;20557;-57
2022/05/03 00:55:25;;;;;;;2.95;0.60;;;20.80;52.30;;;;;;5073833;28;20053;-56
2022/05/03 00:58:07;;;;;;;2.83;0.70;;;20.80;52.20;;;;;;5074830;28;20141;-56
2022/05/03 01:00:34;;;;;;;1.65;0.70;;;20.80;52.20;;;;;;5073785;28;20434;-56
2022/05/03 01:03:18;;;;;;;0.98;0.50;;;20.80;52.20;;;;;;5073426;28;20055;-56
2022/05/03 01:06:10;;;;;;;1.00;0.50;;;20.80;52.20;;;;;;5074388;28;20055;-56
2022/05/03 01:08:56;;;;;;;1.45;0.77;;;20.80;52.00;;;;;;5072558;28;20517;-56
2022/05/03 01:11:37;;;;;;;1.92;0.77;;;20.80;52.10;;;;;;5073358;28;20063;-56
2022/05/03 01:14:24;;;;;;;1.73;0.70;;;20.70;51.90;;;;;;5073903;28;20170;-56
2022/05/03 01:17:00;;;;;;;1.75;0.77;;;20.70;52.00;;;;;;5074220;28;20071;-56
2022/05/03 01:19:41;;;;;;;1.70;0.68;;;20.70;52.00;;;;;;5073639;28;20052;-56
2022/05/03 01:22:31;;;;;;;2.30;0.82;;;20.70;51.90;;;;;;5073819;28;20065;-56
2022/05/03 01:25:02;;;;;;;1.23;0.70;;;20.70;52.20;;;;;;5072318;28;20483;-56
2022/05/03 01:27:41;;;;;;;1.30;0.60;;;20.70;51.90;;;;;;5074517;28;20049;-56
2022/05/03 01:30:06;;;;;;;1.95;0.50;;;20.70;51.90;;;;;;5072222;28;20044;-56
2022/05/03 01:32:33;;;;;;;0.85;0.70;;;20.70;51.80;;;;;;5072750;28;20064;-56
2022/05/03 01:34:58;;;;;;;1.23;0.63;;;20.70;51.80;;;;;;5073478;28;20047;-56
2022/05/03 01:37:33;;;;;;;2.00;0.77;;;20.70;51.80;;;;;;5072796;28;20524;-57
2022/05/03 01:40:06;;;;;;;1.30;0.50;;;20.70;51.80;;;;;;5073993;28;20110;-57
2022/05/03 01:43:01;;;;;;;0.70;0.50;;;20.70;51.70;;;;;;5073585;28;20040;-56
2022/05/03 01:45:31;;;;;;;1.42;0.60;;;20.70;51.60;;;;;;5072935;28;20080;-57
2022/05/03 01:48:26;;;;;;;1.23;0.60;;;20.60;51.60;;;;;;5073880;28;20076;-57
2022/05/03 01:51:06;;;;;;;1.70;0.68;;;20.60;51.50;;;;;;5070792;28;20056;-57
2022/05/03 01:53:45;;;;;;;1.05;0.80;;;20.60;51.60;;;;;;5072622;28;20487;-57
2022/05/03 01:56:28;;;;;;;1.02;0.50;;;20.60;51.50;;;;;;5071931;28;20487;-57
2022/05/03 01:59:10;;;;;;;1.75;0.65;;;20.60;51.50;;;;;;5072254;28;20158;-57
2022/05/03 02:01:45;;;;;;;2.15;0.90;;;20.60;51.50;;;;;;5072523;28;20119;-57
2022/05/03 02:04:13;;;;;;;1.27;0.60;;;20.60;51.40;;;;;;5073060;28;20049;-57
2022/05/03 02:07:03;;;;;;;1.58;0.60;;;20.60;51.50;;;;;;5073338;28;20119;-58
2022/05/03 02:09:46;;;;;;;1.77;0.60;;;20.50;51.30;;;;;;5072317;28;20060;-57
2022/05/03 02:12:15;;;;;;;1.80;0.70;;;20.50;51.30;;;;;;5071488;28;20135;-57
2022/05/03 02:14:53;;;;;;;1.50;0.70;;;20.60;51.40;;;;;;5073193;28;20040;-57
2022/05/03 02:17:42;;;;;;;1.67;0.70;;;20.50;51.30;;;;;;5072328;28;20095;-57
2022/05/03 02:20:16;;;;;;;1.98;0.63;;;20.50;51.20;;;;;;5072227;28;20044;-57
2022/05/03 02:22:50;;;;;;;0.90;0.50;;;20.50;51.30;;;;;;5071766;28;20048;-56
2022/05/03 02:25:34;;;;;;;2.28;0.75;;;20.50;51.20;;;;;;5071367;28;20041;-56
2022/05/03 02:28:03;;;;;;;1.83;0.70;;;20.50;51.10;;;;;;5072958;28;20044;-56
2022/05/03 02:30:31;;;;;;;1.85;0.68;;;20.50;51.20;;;;;;5072855;28;20397;-56
2022/05/03 02:33:01;;;;;;;1.58;0.60;;;20.50;51.20;;;;;;5071078;28;20044;-56
2022/05/03 02:35:33;;;;;;;1.00;0.60;;;20.50;51.10;;;;;;5071645;28;20051;-56
2022/05/03 02:38:05;;;;;;;1.65;0.60;;;20.50;51.10;;;;;;5072945;28;20055;-56
2022/05/03 02:40:31;;;;;;;2.13;0.60;;;20.50;51.10;;;;;;5072285;28;20071;-56
2022/05/03 02:42:57;;;;;;;1.60;0.75;;;20.50;51.10;;;;;;5072803;28;20154;-56
2022/05/03 02:45:22;;;;;;;2.15;0.65;;;20.40;51.00;;;;;;5071787;28;20480;-56
2022/05/03 02:48:16;;;;;;;1.27;0.60;;;20.40;51.00;;;;;;5072585;28;20071;-56
2022/05/03 02:51:04;;;;;;;1.67;0.60;;;20.40;51.00;;;;;;5072623;28;20044;-57
2022/05/03 02:53:55;;;;;;;1.20;0.65;;;20.40;50.90;;;;;;5072267;28;20050;-57
2022/05/03 02:56:22;;;;;;;1.20;0.80;;;20.40;50.90;;;;;;5071601;28;20085;-56
2022/05/03 02:58:54;;;;;;;1.40;0.60;;;20.40;51.00;;;;;;5072587;28;20129;-57
2022/05/03 03:01:49;;;;;;;0.95;0.68;;;20.40;50.90;;;;;;5071829;28;20083;-57
2022/05/03 03:04:27;;;;;;;2.75;0.60;;;20.40;50.80;;;;;;5072723;28;20146;-56
2022/05/03 03:06:54;;;;;;;1.15;0.50;;;20.40;50.90;;;;;;5071729;28;20040;-57
2022/05/03 03:09:40;;;;;;;1.63;0.75;;;20.40;50.90;;;;;;5071413;28;20045;-56
2022/05/03 03:12:43;;;;;;;1.27;0.63;;;20.30;50.70;;;;;;5072348;28;20045;-56
2022/05/03 03:15:09;;;;;;;2.38;0.70;;;20.30;50.70;;;;;;5071818;28;20047;-56
2022/05/03 03:17:37;;;;;;;0.85;0.60;;;20.30;50.80;;;;;;5072801;28;20379;-56
2022/05/03 03:20:13;;;;;;;1.73;0.70;;;20.30;50.70;;;;;;5072355;28;20055;-56
2022/05/03 03:22:46;;;;;;;1.58;0.63;;;20.30;50.70;;;;;;5071473;28;20102;-56
2022/05/03 03:25:16;;;;;;;1.80;0.70;;;20.30;50.70;;;;;;5072584;28;20055;-56
2022/05/03 03:27:49;;;;;;;0.70;0.60;;;20.30;50.70;;;;;;5071224;28;20568;-55
2022/05/03 03:30:15;;;;;;;1.63;0.60;;;20.30;50.60;;;;;;5072172;28;20048;-57
2022/05/03 03:32:45;;;;;;;1.48;0.57;;;20.30;51.40;;;;;;5072328;28;20055;-56
2022/05/03 03:35:12;;;;;;;1.63;0.70;;;20.30;50.70;;;;;;5071698;28;20084;-56
2022/05/03 03:37:38;;;;;;;1.58;0.50;;;20.30;51.30;;;;;;5072109;28;20501;-56
2022/05/03 03:40:04;;;;;;;1.38;0.68;;;20.30;50.60;;;;;;5071186;28;20045;-56
2022/05/03 03:42:30;;;;;;;1.20;0.60;;;20.30;50.60;;;;;;5070365;28;20048;-57
2022/05/03 03:45:08;;;;;;;1.38;0.70;;;20.30;50.50;;;;;;5071023;28;20048;-57
2022/05/03 03:47:37;;;;;;;1.00;0.50;;;20.30;50.50;;;;;;5072288;28;20442;-57
2022/05/03 03:50:03;;;;;;;1.83;0.93;;;20.30;50.50;;;;;;5071284;28;20118;-57
2022/05/03 03:52:29;;;;;;;2.45;0.60;;;20.30;50.50;;;;;;5072015;28;20439;-56
2022/05/03 03:54:54;;;;;;;1.77;0.70;;;20.30;50.40;;;;;;5070683;28;20040;-57
2022/05/03 03:57:21;;;;;;;1.13;0.70;;;20.30;50.40;;;;;;5071650;28;20041;-57
2022/05/03 03:59:47;;;;;;;1.52;0.70;;;20.30;50.40;;;;;;5070837;28;20041;-57
2022/05/03 04:02:12;;;;;;;2.65;0.60;;;20.30;50.30;;;;;;5070720;28;20076;-57
2022/05/03 04:04:38;;;;;;;0.95;0.50;;;20.30;50.30;;;;;;5069643;28;20080;-57
2022/05/03 04:07:04;;;;;;;1.88;0.65;;;20.30;50.40;;;;;;5071756;28;20040;-56
2022/05/03 04:09:29;;;;;;;1.45;0.70;;;20.30;50.30;;;;;;5071818;28;20053;-57
2022/05/03 04:11:55;;;;;;;0.98;0.60;;;20.30;50.30;;;;;;5070980;28;20052;-57
2022/05/03 04:14:21;;;;;;;1.15;0.65;;;20.30;50.20;;;;;;5074707;28;20435;-57
2022/05/03 04:16:46;;;;;;;1.85;0.70;;;20.30;50.20;;;;;;5074377;28;20098;-57
2022/05/03 04:19:12;;;;;;;1.15;0.70;;;20.30;50.20;;;;;;5075817;28;20040;-57
2022/05/03 04:21:38;;;;;;;2.85;0.80;;;20.30;50.20;;;;;;5075658;28;20529;-57
2022/05/03 04:24:04;;;;;;;1.52;0.60;;;20.30;50.30;;;;;;5074966;28;20040;-57
2022/05/03 04:26:29;;;;;;;1.10;0.60;;;20.30;50.30;;;;;;5075709;28;20052;-57
2022/05/03 04:28:59;;;;;;;1.65;0.73;;;20.30;50.20;;;;;;5075314;28;20128;-56
2022/05/03 04:31:27;;;;;;;1.55;0.50;;;20.30;50.10;;;;;;5074507;28;20048;-57
2022/05/03 04:33:56;;;;;;;1.00;0.60;;;20.40;50.30;;;;;;5075339;28;20033;-56
2022/05/03 04:36:22;;;;;;;1.35;0.65;;;20.40;50.20;;;;;;5075516;28;20052;-56
2022/05/03 04:38:48;;;;;;;1.25;0.88;;;20.40;50.20;;;;;;5074427;28;20049;-56
2022/05/03 04:41:14;;;;;;;1.33;0.60;;;20.30;50.20;;;;;;5075425;28;20051;-56
2022/05/03 04:43:39;;;;;;;1.52;0.57;;;20.40;50.30;;;;;;5075203;28;20044;-56
2022/05/03 04:46:05;;;;;;;1.30;0.82;;;20.40;50.30;;;;;;5074305;28;20543;-56
2022/05/03 04:48:30;;;;;;;1.58;0.70;;;20.40;50.20;;;;;;5075193;28;20044;-56
2022/05/03 04:50:56;;;;;;;1.58;0.60;;;20.40;50.20;;;;;;5074811;28;20041;-56
2022/05/03 04:53:22;;;;;;;1.35;0.60;;;20.40;50.10;;;;;;5074534;28;20050;-56
2022/05/03 04:55:48;;;;;;;1.20;0.57;;;20.40;50.20;;;;;;5074464;28;20522;-56
2022/05/03 04:58:13;;;;;;;0.85;0.50;;;20.40;50.10;;;;;;5074845;28;20040;-57
2022/05/03 05:00:39;;;;;;;0.88;0.50;;;20.50;50.10;;;;;;5073539;28;20098;-57
2022/05/03 05:03:05;;;;;;;1.27;0.70;;;20.40;50.00;;;;;;5074903;28;20044;-57
2022/05/03 05:05:30;;;;;;;1.83;0.80;;;20.50;50.00;;;;;;5074982;28;20072;-57
2022/05/03 05:08:00;;;;;;;2.53;0.88;;;20.50;49.90;;;;;;5073942;28;20044;-57
2022/05/03 05:10:30;;;;;;;1.45;0.50;;;20.50;49.90;;;;;;5074550;28;20057;-57
2022/05/03 05:12:56;;;;;;;1.05;0.65;;;20.60;50.00;;;;;;5074645;28;20098;-56
2022/05/03 05:15:25;;;;;;;1.17;0.60;;;20.60;50.00;;;;;;5073431;28;20048;-56
2022/05/03 05:17:54;;;;;;;1.50;0.80;;;20.60;50.10;;;;;;5074490;28;20032;-56
2022/05/03 05:20:20;;;;;;;1.08;0.70;;;20.60;50.10;;;;;;5073573;28;20778;-56
2022/05/03 05:22:46;;;;;;;1.00;0.50;;;20.60;50.00;;;;;;5073696;28;20047;-56
2022/05/03 05:25:11;;;;;;;0.90;0.60;;;20.70;50.10;;;;;;5074192;28;20043;-56
2022/05/03 05:27:37;;;;;;;0.70;0.50;;;20.70;50.20;;;;;;5073738;28;20145;-56
2022/05/03 05:30:03;;;;;;;1.27;0.57;;;20.70;50.10;;;;;;5074033;28;20052;-57
2022/05/03 05:32:29;;;;;;;1.08;0.70;;;20.70;50.20;;;;;;5074057;28;20078;-56
2022/05/03 05:34:55;;;;;;;1.73;0.77;;;20.70;50.20;;;;;;5073401;28;20454;-56
2022/05/03 05:37:20;;;;;;;1.17;0.50;;;20.70;50.20;;;;;;5074230;28;20040;-56
2022/05/03 05:39:45;;;;;;;1.60;0.70;;;20.70;50.30;;;;;;5073701;28;20082;-56
2022/05/03 05:42:11;;;;;;;1.38;0.50;;;20.70;50.30;;;;;;5073167;28;20120;-56
2022/05/03 05:44:37;;;;;;;2.33;0.40;;;20.80;50.30;;;;;;5074066;28;20515;-56
2022/05/03 05:47:05;;;;;;;0.70;0.40;;;20.80;50.40;;;;;;5073752;28;20123;-56
2022/05/03 05:49:30;;;;;;;1.38;0.70;;;20.80;50.40;;;;;;5073285;28;20041;-56
2022/05/03 05:53:31;;;;;;;1.38;0.50;;;20.80;50.50;;;;;;5073479;28;20556;-56
2022/05/03 05:54:41;;;;;;;0.50;0.43;;;20.80;50.60;;;;;;5073260;28;20399;-56
2022/05/03 05:57:07;;;;;;;1.17;0.60;;;20.80;50.60;;;;;;5072836;28;20663;-56
2022/05/03 05:59:32;;;;;;;0.98;0.50;;;20.80;50.60;;;;;;5085838;28;20036;-57
2022/05/03 06:01:58;;;;;;;1.23;0.50;;;20.80;50.80;;;;;;5093706;28;20116;-57
2022/05/03 06:04:23;;;;;;;1.17;0.50;;;20.80;50.80;;;;;;5093378;28;20082;-57
2022/05/03 06:06:49;;;;;;;1.05;0.45;;;20.80;50.80;;;;;;5093686;28;20495;-57
2022/05/03 06:09:14;;;;;;;1.55;0.50;;;20.90;50.90;;;;;;5093147;28;20044;-58
2022/05/03 06:11:40;;;;;;;0.90;0.50;;;20.80;50.90;;;;;;5093121;28;20051;-58
2022/05/03 06:14:06;;;;;;;0.85;0.50;;;20.80;50.90;;;;;;5093812;28;20040;-57
2022/05/03 06:16:31;;;;;;;1.95;0.70;;;20.90;51.10;;;;;;5092875;28;20407;-57
2022/05/03 06:18:56;;;;;;;1.25;0.40;;;20.90;51.10;;;;;;5093565;28;20502;-57
2022/05/03 06:21:22;;;;;;;1.00;0.55;;;20.90;51.20;;;;;;5093658;28;20098;-57
2022/05/03 06:23:47;;;;;;;1.40;0.60;;;20.90;51.20;;;;;;5092294;28;20070;-57
2022/05/03 06:26:13;;;;;;;1.02;0.40;;;20.90;51.30;;;;;;5093250;28;20090;-57
2022/05/03 06:28:40;;;;;;;0.70;0.50;;;20.90;51.40;;;;;;5092165;28;20070;-57
2022/05/03 06:31:06;;;;;;;0.90;0.50;;;20.90;51.40;;;;;;5092372;28;20478;-57
2022/05/03 06:33:32;;;;;;;1.08;0.52;;;20.90;51.50;;;;;;5093299;28;20594;-57
2022/05/03 06:35:57;;;;;;;0.60;0.40;;;21.00;51.60;;;;;;5092614;28;20050;-58
2022/05/03 06:38:23;;;;;;;1.05;0.50;;;20.90;51.50;;;;;;5092311;28;20375;-57
2022/05/03 06:40:48;;;;;;;1.27;0.70;;;21.00;51.70;;;;;;5092733;28;20043;-57
2022/05/03 06:43:13;;;;;;;1.20;0.60;;;21.00;51.60;;;;;;5093376;28;20036;-57
2022/05/03 06:45:39;;;;;;;3.03;0.80;;;21.00;51.60;;;;;;5091799;28;20106;-57
2022/05/03 06:48:06;;;;;;;1.05;0.63;;;21.00;51.70;;;;;;5093268;28;20052;-57
2022/05/03 06:50:32;;;;;;;4.47;0.90;;;21.00;51.80;;;;;;5092971;28;20044;-57
2022/05/03 06:52:57;;;;;;;2.35;0.70;;;21.10;51.90;;;;;;5091937;28;20854;-56
2022/05/03 06:55:23;;;;;;;2.50;0.70;;;21.10;51.90;;;;;;5078149;28;20051;-57
2022/05/03 06:57:48;;;;;;;1.15;0.80;;;21.10;52.60;;;;;;5072495;28;20047;-57
2022/05/03 07:00:15;;;;;;;2.47;0.80;;;21.10;52.10;;;;;;5072026;28;20068;-58
2022/05/03 07:02:41;;;;;;;2.00;0.85;;;21.10;52.30;;;;;;5072069;28;20555;-57
2022/05/03 07:05:07;;;;;;;2.30;0.80;;;21.10;52.40;;;;;;5072485;28;20372;-58
2022/05/03 07:07:33;;;;;;;2.42;0.80;;;21.10;52.50;;;;;;5072109;28;20498;-58
2022/05/03 07:10:01;;;;;;;1.42;0.63;;;21.20;52.70;;;;;;5071718;28;20393;-58
2022/05/03 07:12:27;;;;;;;1.23;0.80;;;21.20;53.50;;;;;;5072389;28;20438;-57
2022/05/03 07:15:06;;;;;;;2.42;0.73;;;21.20;52.80;;;;;;5071232;28;20041;-58
2022/05/03 07:23:00;;;;;;;1.23;0.75;;;21.20;53.10;;;;;;5072370;28;20040;-57
2022/05/03 07:25:26;;;;;;;3.78;0.80;;;21.30;53.20;;;;;;5072251;28;20146;-57
2022/05/03 07:27:51;;;;;;;2.42;0.90;;;21.30;53.20;;;;;;5071362;28;20040;-57
2022/05/03 07:30:18;;;;;;;3.28;0.80;;;21.30;53.30;;;;;;5072504;28;20446;-57
2022/05/03 07:32:43;;;;;;;2.10;0.80;;;21.30;53.30;;;;;;5071741;28;20466;-57
2022/05/03 07:35:09;;;;;;;1.42;0.70;;;21.30;53.40;;;;;;5071865;28;20513;-57
2022/05/03 07:37:35;;;;;;;1.38;0.77;;;21.30;53.40;;;;;;5072579;28;20613;-57
2022/05/03 07:40:01;;;;;;;2.47;1.00;;;21.30;53.50;;;;;;5072181;28;20047;-57
2022/05/03 07:42:27;;;;;;;2.25;0.90;;;21.30;53.50;;;;;;5071663;28;20041;-57
2022/05/03 07:44:52;;;;;;;2.15;0.93;;;21.40;53.60;;;;;;5072130;28;20041;-57
2022/05/03 07:47:18;;;;;;;1.15;0.80;;;21.40;53.60;;;;;;5072854;28;20040;-57
2022/05/03 07:49:43;;;;;;;1.60;1.05;;;21.40;53.60;;;;;;5073384;28;20037;-57
2022/05/03 07:52:09;;;;;;;2.42;1.00;;;21.40;53.70;;;;;;5073947;28;20037;-57
2022/05/03 07:54:34;;;;;;;6.75;1.35;;;21.40;53.70;;;;;;5076248;28;20051;-57
2022/05/03 07:57:00;;;;;;;2.22;1.17;;;21.40;53.70;;;;;;5074810;28;20093;-57
2022/05/03 07:59:25;;;;;;;3.70;1.33;;;21.40;53.70;;;;;;5075286;28;20424;-57
2022/05/03 08:01:52;;;;;;;2.78;1.08;;;21.40;53.70;;;;;;5074458;28;20040;-57
2022/05/03 08:04:18;;;;;;;2.60;1.20;;;21.40;53.70;;;;;;5075685;28;20052;-56
2022/05/03 08:06:44;;;;;;;2.58;1.33;;;21.50;53.80;;;;;;5074770;28;20509;-57
2022/05/03 08:09:10;;;;;;;2.30;1.20;;;21.40;53.80;;;;;;5073613;28;20152;-59
2022/05/03 08:11:35;;;;;;;2.10;1.13;;;21.40;53.90;;;;;;5075361;28;20132;-56
2022/05/03 08:14:01;;;;;;;3.55;1.30;;;21.40;54.00;;;;;;5075538;28;20083;-57
2022/05/03 08:16:30;;;;;;;5.22;1.50;;;21.40;54.00;;;;;;5074178;28;20143;-56
2022/05/03 08:18:56;;;;;;;5.70;1.40;;;21.40;54.00;;;;;;5075524;28;20043;-57
2022/05/03 08:21:22;;;;;;;4.28;1.80;;;21.40;54.00;;;;;;5075626;28;20115;-57
2022/05/03 08:23:47;;;;;;;2.90;1.30;;;21.40;54.20;;;;;;5074694;28;20264;-57
2022/05/03 08:26:13;;;;;;;2.33;1.20;;;21.40;54.10;;;;;;5075539;28;20110;-57
2022/05/03 08:28:41;;;;;;;2.63;1.33;;;21.40;54.10;;;;;;5075377;28;20055;-57
2022/05/03 08:31:07;;;;;;;4.07;1.67;;;21.30;54.10;;;;;;5074527;28;20052;-57
2022/05/03 08:33:33;;;;;;;5.03;1.85;;;21.30;54.20;;;;;;5075214;28;20395;-58
2022/05/03 08:35:59;;;;;;;3.55;1.65;;;21.30;54.20;;;;;;5074365;28;20487;-58
2022/05/03 08:43:54;;;;;;;4.80;1.77;;;21.30;54.20;;;;;;5075015;28;20044;-57
2022/05/03 08:46:20;;;;;;;2.85;1.60;;;21.30;54.20;;;;;;5074478;28;20040;-58
2022/05/03 08:48:46;;;;;;;3.33;1.67;;;21.30;54.10;;;;;;5075189;28;20127;-57
2022/05/03 08:51:14;;;;;;;3.47;1.75;;;21.30;54.20;;;;;;5056366;28;20402;-57
2022/05/03 08:53:40;;;;;;;5.95;1.80;;;21.30;54.20;;;;;;5071781;28;20044;-57
2022/05/03 08:56:06;;;;;;;5.65;2.03;;;21.30;54.20;;;;;;5045026;28;20381;-56
2022/05/03 08:58:32;;;;;;;4.20;1.90;;;21.30;54.30;;;;;;5034171;28;20393;-57
2022/05/03 09:00:57;;;;;;;4.00;1.95;;;21.30;54.30;;;;;;5049532;28;20404;-57
2022/05/03 09:03:24;;;;;;;5.93;1.80;;;21.30;54.30;;;;;;5034841;28;20033;-57
2022/05/03 09:05:50;;;;;;;4.40;2.05;;;21.30;54.40;;;;;;5049379;28;20059;-57
2022/05/03 09:08:21;;;;;;;4.68;1.92;;;21.30;54.50;;;;;;5035036;28;20034;-57
2022/05/03 09:10:47;;;;;;;3.70;1.77;;;21.30;54.60;;;;;;5034230;28;20142;-56
2022/05/03 09:13:22;;;;;;;3.55;2.15;;;21.30;54.60;;;;;;5033818;28;20127;-57
2022/05/03 09:15:50;;;;;;;4.40;1.77;;;21.20;54.60;;;;;;5031281;28;20050;-56
2022/05/03 09:18:27;;;;;;;3.33;1.90;;;21.20;54.60;;;;;;5019014;28;20042;-56
2022/05/03 09:23:47;;;;;;;3.97;1.85;;;21.20;54.80;;;;;;5014197;28;20409;-57
2022/05/03 09:26:17;;;;;;;3.60;1.90;;;21.20;54.80;;;;;;5014017;28;20042;-57
2022/05/03 09:28:53;;;;;;;4.18;1.90;;;21.30;54.80;;;;;;5014615;28;20128;-56
2022/05/03 09:31:37;;;;;;;4.80;1.67;;;21.20;54.80;;;;;;5014409;28;20054;-56
2022/05/03 09:34:04;;;;;;;3.92;1.88;;;21.20;54.80;;;;;;5013392;28;20593;-56
2022/05/03 09:36:43;;;;;;;4.75;1.92;;;21.30;54.80;;;;;;5014756;28;20073;-57
2022/05/03 09:39:08;;;;;;;3.05;1.90;;;21.20;54.80;;;;;;5014432;28;20038;-56
2022/05/03 09:41:34;;;;;;;4.25;1.80;;;21.30;54.90;;;;;;5013640;28;20060;-56
2022/05/03 09:44:07;;;;;;;3.15;1.88;;;21.30;54.90;;;;;;5029068;28;20046;-57
2022/05/03 09:46:52;;;;;;;2.30;1.40;;;21.30;54.90;;;;;;5014636;28;20096;-56
2022/05/03 09:49:19;;;;;;;2.60;1.80;;;21.30;55.00;;;;;;5013426;28;20056;-57
2022/05/03 09:51:44;;;;;;;5.97;2.30;;;21.30;55.00;;;;;;5028920;28;20494;-56
2022/05/03 09:54:10;;;;;;;3.53;1.98;;;21.30;55.00;;;;;;5015084;28;20046;-57
2022/05/03 09:56:35;;;;;;;4.72;1.83;;;21.30;55.00;;;;;;5028966;28;20057;-56
2022/05/03 09:59:04;;;;;;;5.50;2.20;;;21.30;55.00;;;;;;5013647;28;20455;-55
2022/05/03 10:01:30;;;;;;;6.30;2.80;;;21.30;55.00;;;;;;5028607;28;20133;-56
2022/05/03 10:03:55;;;;;;;3.65;1.73;;;21.30;55.10;;;;;;5028870;28;20113;-55
2022/05/03 10:06:21;;;;;;;4.03;1.70;;;21.30;55.10;;;;;;5029549;28;20374;-56
2022/05/03 10:08:48;;;;;;;5.38;2.00;;;21.30;55.00;;;;;;5012798;28;20393;-57
2022/05/03 10:11:16;;;;;;;3.03;1.50;;;21.30;55.00;;;;;;5022311;28;20058;-56
2022/05/03 10:13:41;;;;;;;3.38;1.75;;;21.30;55.00;;;;;;5033330;28;20095;-56
2022/05/03 10:21:36;;;;;;;4.80;2.00;;;21.30;55.00;;;;;;5046674;28;20050;-57
2022/05/03 10:24:11;;;;;;;4.75;1.92;;;21.30;55.00;;;;;;5047638;28;20045;-57
2022/05/03 10:26:52;;;;;;;4.32;2.45;;;21.30;55.00;;;;;;5033463;28;20033;-57
2022/05/03 10:29:21;;;;;;;3.25;1.80;;;21.30;54.90;;;;;;5033305;28;20512;-57
2022/05/03 10:31:57;;;;;;;3.47;1.73;;;21.30;55.00;;;;;;5032281;28;20048;-58
2022/05/03 10:34:44;;;;;;;4.43;2.10;;;21.30;55.00;;;;;;5033855;28;20435;-56
2022/05/03 10:37:14;;;;;;;4.28;1.90;;;21.30;54.90;;;;;;5032752;28;20041;-57
2022/05/03 10:39:48;;;;;;;3.63;1.65;;;21.30;55.00;;;;;;5032888;28;20046;-56
2022/05/03 10:42:14;;;;;;;3.13;1.90;;;21.30;55.00;;;;;;5032796;28;20042;-57
2022/05/03 10:44:45;;;;;;;4.45;1.83;;;21.30;55.10;;;;;;5030859;28;20037;-57
2022/05/03 10:47:11;;;;;;;5.03;2.33;;;21.30;55.10;;;;;;5031837;28;20041;-57
2022/05/03 10:50:12;;;;;;;3.47;1.75;;;21.30;55.10;;;;;;5032909;28;20507;-57
2022/05/03 10:52:45;;;;;;;3.17;2.13;;;21.30;55.00;;;;;;5024689;28;20049;-57
2022/05/03 10:55:11;;;;;;;4.15;1.77;;;21.30;55.20;;;;;;5048236;28;20092;-57
2022/05/03 10:58:14;;;;;;;4.78;2.15;;;21.30;55.20;;;;;;5032827;28;20598;-57
2022/05/03 11:01:02;;;;;;;3.25;1.92;;;21.30;55.20;;;;;;5032535;28;20115;-57
2022/05/03 11:03:27;;;;;;;5.18;2.08;;;21.30;55.20;;;;;;5032619;28;20428;-57
2022/05/03 11:06:22;;;;;;;4.05;2.00;;;21.30;55.30;;;;;;5031793;28;20071;-57
2022/05/03 11:09:09;;;;;;;6.40;2.38;;;21.30;55.30;;;;;;5023272;28;20097;-56
2022/05/03 11:14:26;;;;;;;4.15;1.88;;;21.20;55.20;;;;;;5032536;28;20104;-58
2022/05/03 11:17:08;;;;;;;5.45;2.35;;;21.30;55.30;;;;;;5024958;28;20132;-57
2022/05/03 11:19:52;;;;;;;6.32;2.47;;;21.30;55.20;;;;;;5031489;28;20401;-57
2022/05/03 11:22:22;;;;;;;6.88;2.70;;;21.30;55.30;;;;;;5032562;28;20073;-57
2022/05/03 11:24:50;;;;;;;7.78;2.38;;;21.30;55.30;;;;;;5030384;28;20050;-56
2022/05/03 11:27:16;;;;;;;8.80;3.22;;;21.30;55.30;;;;;;5022423;28;20176;-57
2022/05/03 11:29:55;;;;;;;7.30;3.20;;;21.30;55.30;;;;;;5021074;28;20069;-57
2022/05/03 11:32:32;;;;;;;7.45;3.42;;;21.30;55.30;;;;;;5020569;28;20038;-57
2022/05/03 11:35:14;;;;;;;8.98;3.30;;;21.30;55.00;;;;;;5022044;28;20129;-59
2022/05/03 11:37:48;;;;;;;11.02;3.42;;;21.30;55.00;;;;;;5014092;28;20046;-59
2022/05/03 11:40:13;;;;;;;11.27;4.10;;;21.20;54.80;;;;;;5044086;28;20469;-59
2022/05/03 11:42:41;;;;;;;11.95;4.00;;;21.20;54.70;;;;;;5019290;28;20545;-59
2022/05/03 11:45:07;;;;;;;14.00;3.97;;;21.20;54.50;;;;;;5019977;28;20611;-57
2022/05/03 11:47:34;;;;;;;12.57;4.20;;;21.20;54.10;;;;;;5020775;28;20559;-57
2022/05/03 11:50:00;;;;;;;9.95;3.83;;;21.20;54.00;;;;;;5020895;28;20083;-58
2022/05/03 11:57:53;;;;;;;10.60;3.67;;;21.20;53.70;;;;;;5021672;28;20050;-58
2022/05/03 12:00:19;;;;;;;8.57;3.42;;;21.20;53.90;;;;;;5041049;28;20045;-58
2022/05/03 12:02:45;;;;;;;12.90;4.10;;;21.20;54.00;;;;;;5029168;28;20519;-58
2022/05/03 12:05:18;;;;;;;11.63;3.95;;;21.20;54.10;;;;;;5031751;28;20033;-57
2022/05/03 12:07:50;;;;;;;9.65;3.65;;;21.20;54.20;;;;;;5031497;28;20042;-58
2022/05/03 12:10:34;;;;;;;8.00;3.47;;;21.20;54.30;;;;;;5030435;28;20084;-58
2022/05/03 12:13:07;;;;;;;11.23;3.53;;;21.20;54.40;;;;;;5029220;28;20080;-57
2022/05/03 12:15:37;;;;;;;10.32;3.80;;;21.20;54.60;;;;;;5028054;28;20128;-57
2022/05/03 12:18:09;;;;;;;11.02;3.25;;;21.20;54.60;;;;;;5031702;28;20439;-57
2022/05/03 12:21:04;;;;;;;7.90;3.38;;;21.20;54.70;;;;;;5032063;28;20045;-58
2022/05/03 12:23:32;;;;;;;8.60;3.55;;;21.20;54.80;;;;;;5030446;28;20045;-58
2022/05/03 12:25:59;;;;;;;10.50;3.47;;;21.20;54.80;;;;;;5031526;28;20405;-58
2022/05/03 12:28:40;;;;;;;8.00;3.13;;;21.20;54.80;;;;;;5031776;28;20480;-58
2022/05/03 12:31:06;;;;;;;9.50;3.30;;;21.20;54.80;;;;;;5030928;28;20389;-58
2022/05/03 12:33:32;;;;;;;8.30;3.05;;;21.20;54.80;;;;;;5031952;28;20092;-58
2022/05/03 12:35:58;;;;;;;7.25;3.22;;;21.20;54.80;;;;;;5034662;28;20045;-58
2022/05/03 12:38:24;;;;;;;6.93;2.92;;;21.20;54.90;;;;;;5034740;28;20077;-58
2022/05/03 12:40:55;;;;;;;7.88;2.95;;;21.20;54.80;;;;;;5035103;28;20700;-58
2022/05/03 12:43:29;;;;;;;8.18;3.35;;;21.20;54.90;;;;;;5034253;28;20463;-58
2022/05/03 12:46:02;;;;;;;9.35;3.03;;;21.30;55.00;;;;;;5036836;28;20412;-57
2022/05/03 12:48:29;;;;;;;10.32;3.28;;;21.30;55.00;;;;;;5015200;28;20477;-58
2022/05/03 12:50:55;;;;;;;8.60;3.50;;;21.30;55.00;;;;;;5014349;28;20100;-58
2022/05/03 12:53:30;;;;;;;7.90;3.35;;;21.30;54.80;;;;;;5015406;28;20034;-58
2022/05/03 12:55:56;;;;;;;7.78;2.55;;;21.30;54.70;;;;;;5014810;28;20436;-58
2022/05/03 12:58:22;;;;;;;10.18;3.20;;;21.30;54.60;;;;;;5014431;28;20038;-57
2022/05/03 13:00:49;;;;;;;10.90;2.85;;;21.30;54.70;;;;;;5014568;28;20469;-58
2022/05/03 13:03:15;;;;;;;8.43;3.40;;;21.30;54.80;;;;;;5014735;28;20078;-58
2022/05/03 13:05:41;;;;;;;6.47;3.10;;;21.30;54.80;;;;;;5013916;28;20089;-58
2022/05/03 13:08:06;;;;;;;9.38;2.75;;;21.30;54.90;;;;;;5014983;28;20061;-58
2022/05/03 13:10:33;;;;;;;9.45;3.25;;;21.30;55.00;;;;;;5014646;28;20551;-58
2022/05/03 13:13:00;;;;;;;7.95;3.30;;;21.30;55.00;;;;;;5013871;28;20058;-58
2022/05/03 13:15:26;;;;;;;7.15;3.08;;;21.30;55.00;;;;;;5014783;28;20457;-58
2022/05/03 13:17:51;;;;;;;6.55;2.38;;;21.40;55.00;;;;;;5014553;28;20478;-57
2022/05/03 13:20:19;;;;;;;9.15;2.92;;;21.30;55.10;;;;;;5014068;28;20457;-58
2022/05/03 13:22:44;;;;;;;5.78;2.53;;;21.40;55.20;;;;;;5014202;28;20041;-58
2022/05/03 13:25:10;;;;;;;7.97;2.90;;;21.40;55.30;;;;;;5014821;28;20496;-58
2022/05/03 13:27:35;;;;;;;6.03;2.75;;;21.40;55.30;;;;;;5013777;28;20473;-58
2022/05/03 13:30:01;;;;;;;5.68;2.35;;;21.40;55.30;;;;;;5014316;28;20045;-58